createdAt,value
2022-11-20T00:01:11.548Z,102016.88
2022-11-20T00:03:24.568Z,102020.61
2022-11-20T00:05:39.007Z,102021.11
2022-11-20T00:07:51.712Z,102017.60
2022-11-20T00:10:04.205Z,102019.53
2022-11-20T00:12:18.196Z,102021.11
2022-11-20T00:14:30.804Z,102023.66
2022-11-20T00:16:43.411Z,102021.62
2022-11-20T00:18:56.896Z,102023.83
2022-11-20T00:21:10.961Z,102022.88
2022-11-20T00:23:23.790Z,102020.11
2022-11-20T00:25:37.726Z,102024.09
2022-11-20T00:27:50.398Z,102025.46
2022-11-20T00:30:02.974Z,102027.58
2022-11-20T00:32:15.714Z,102031.29
2022-11-20T00:34:28.766Z,102032.77
2022-11-20T00:36:41.183Z,102035.77
2022-11-20T00:38:55.422Z,102036.79
2022-11-20T00:41:09.743Z,102039.50
2022-11-20T00:43:22.489Z,102039.93
2022-11-20T00:45:34.958Z,102034.02
2022-11-20T00:47:47.677Z,102032.00
2022-11-20T00:50:00.722Z,102030.70
2022-11-20T00:52:13.719Z,102030.07
2022-11-20T00:54:26.661Z,102030.21
2022-11-20T00:56:39.259Z,102033.02
2022-11-20T00:58:52.784Z,102036.09
2022-11-20T01:01:09.933Z,102034.23
2022-11-20T01:03:26.855Z,102036.62
2022-11-20T01:05:43.311Z,102037.08
2022-11-20T01:07:55.858Z,102040.36
2022-11-20T01:10:08.634Z,102041.26
2022-11-20T01:12:21.206Z,102044.64
2022-11-20T01:14:33.603Z,102047.86
2022-11-20T01:16:47.640Z,102041.52
2022-11-20T01:19:01.930Z,102047.03
2022-11-20T01:21:16.176Z,102036.08
2022-11-20T01:23:29.049Z,102040.83
2022-11-20T01:25:42.025Z,102035.35
2022-11-20T01:27:55.864Z,102035.79
2022-11-20T01:30:09.176Z,102039.81
2022-11-20T01:32:21.695Z,102034.73
2022-11-20T01:34:35.016Z,102034.25
2022-11-20T01:36:48.927Z,102034.07
2022-11-20T01:39:02.857Z,102036.38
2022-11-20T01:41:37.494Z,102045.73
2022-11-20T01:43:50.152Z,102041.08
2022-11-20T01:46:08.506Z,102046.83
2022-11-20T01:48:22.106Z,102052.20
2022-11-20T01:50:36.137Z,102052.70
2022-11-20T01:52:54.443Z,102052.27
2022-11-20T01:55:11.153Z,102054.19
2022-11-20T01:57:26.098Z,102055.06
2022-11-20T01:59:39.978Z,102051.27
2022-11-20T02:01:52.920Z,102060.57
2022-11-20T02:04:06.833Z,102064.54
2022-11-20T02:06:23.331Z,102063.71
2022-11-20T02:08:36.684Z,102067.46
2022-11-20T02:10:50.059Z,102068.61
2022-11-20T02:13:20.037Z,102066.83
2022-11-20T02:15:32.950Z,102069.11
2022-11-20T02:17:45.658Z,102073.81
2022-11-20T02:19:58.595Z,102076.33
2022-11-20T02:22:16.699Z,102073.30
2022-11-20T02:24:29.758Z,102074.29
2022-11-20T02:26:50.924Z,102078.73
2022-11-20T02:29:04.602Z,102079.42
2022-11-20T02:31:17.322Z,102073.46
2022-11-20T02:33:31.469Z,102071.73
2022-11-20T02:35:53.845Z,102072.29
2022-11-20T02:38:08.576Z,102072.92
2022-11-20T02:40:21.502Z,102079.34
2022-11-20T02:42:33.940Z,102079.10
2022-11-20T02:44:46.705Z,102078.34
2022-11-20T02:47:01.168Z,102078.83
2022-11-20T02:49:13.814Z,102081.23
2022-11-20T02:51:27.225Z,102085.40
2022-11-20T02:53:39.887Z,102091.98
2022-11-20T02:55:53.046Z,102084.43
2022-11-20T02:58:05.490Z,102087.20
2022-11-20T03:00:21.188Z,102089.46
2022-11-20T03:02:36.511Z,102090.56
2022-11-20T03:04:49.171Z,102092.14
2022-11-20T03:07:01.782Z,102084.27
2022-11-20T03:09:14.616Z,102089.80
2022-11-20T03:11:28.040Z,102099.62
2022-11-20T03:13:41.353Z,102108.41
2022-11-20T03:15:54.569Z,102105.30
2022-11-20T03:18:06.945Z,102104.06
2022-11-20T03:20:20.061Z,102100.23
2022-11-20T03:22:33.816Z,102104.14
2022-11-20T03:24:46.193Z,102102.85
2022-11-20T03:26:59.185Z,102102.70
2022-11-20T03:29:11.804Z,102099.29
2022-11-20T03:31:26.496Z,102103.73
2022-11-20T03:33:38.989Z,102110.58
2022-11-20T03:35:52.408Z,102117.52
2022-11-20T03:38:04.919Z,102117.95
2022-11-20T03:40:18.555Z,102118.05
2022-11-20T03:42:50.595Z,102115.73
2022-11-20T03:45:03.367Z,102121.64
2022-11-20T03:47:15.728Z,102117.20
2022-11-20T03:49:28.446Z,102118.80
2022-11-20T03:51:41.339Z,102119.57
2022-11-20T03:53:55.511Z,102117.51
2022-11-20T03:56:08.587Z,102121.07
2022-11-20T03:58:21.609Z,102115.01
2022-11-20T04:00:34.199Z,102118.16
2022-11-20T04:02:47.087Z,102114.19
2022-11-20T04:05:00.103Z,102116.30
2022-11-20T04:07:12.912Z,102118.86
2022-11-20T04:09:25.775Z,102124.09
2022-11-20T04:11:40.792Z,102128.80
2022-11-20T04:13:57.028Z,102129.78
2022-11-20T04:16:10.088Z,102128.91
2022-11-20T04:18:23.084Z,102130.41
2022-11-20T04:20:36.721Z,102124.17
2022-11-20T04:22:49.367Z,102124.29
2022-11-20T04:25:02.177Z,102126.40
2022-11-20T04:27:14.782Z,102128.64
2022-11-20T04:29:27.549Z,102133.15
2022-11-20T04:31:40.594Z,102133.92
2022-11-20T04:33:54.427Z,102137.34
2022-11-20T04:36:10.342Z,102133.89
2022-11-20T04:38:23.468Z,102141.63
2022-11-20T04:40:36.942Z,102144.88
2022-11-20T04:42:49.617Z,102148.80
2022-11-20T04:45:02.806Z,102152.27
2022-11-20T04:47:16.557Z,102158.45
2022-11-20T04:49:29.171Z,102157.69
2022-11-20T04:51:41.918Z,102160.67
2022-11-20T04:53:54.652Z,102165.26
2022-11-20T04:56:13.020Z,102162.75
2022-11-20T04:58:26.543Z,102161.56
2022-11-20T05:00:39.557Z,102160.05
2022-11-20T05:02:52.443Z,102164.29
2022-11-20T05:05:05.359Z,102159.09
2022-11-20T05:07:18.053Z,102158.92
2022-11-20T05:09:31.475Z,102161.66
2022-11-20T05:11:45.509Z,102158.89
2022-11-20T05:14:02.780Z,102163.48
2022-11-20T05:16:16.994Z,102163.65
2022-11-20T05:18:30.000Z,102162.92
2022-11-20T05:20:42.826Z,102163.45
2022-11-20T05:22:55.985Z,102159.66
2022-11-20T05:25:09.168Z,102163.47
2022-11-20T05:27:21.903Z,102168.78
2022-11-20T05:29:34.615Z,102171.21
2022-11-20T05:31:48.198Z,102175.96
2022-11-20T05:34:02.482Z,102179.05
2022-11-20T05:36:16.711Z,102175.05
2022-11-20T05:38:29.616Z,102179.29
2022-11-20T05:40:42.638Z,102185.79
2022-11-20T05:42:55.053Z,102185.79
2022-11-20T05:45:09.055Z,102188.21
2022-11-20T05:47:22.430Z,102190.70
2022-11-20T05:49:35.142Z,102185.84
2022-11-20T05:51:48.211Z,102192.07
2022-11-20T05:54:02.238Z,102193.36
2022-11-20T05:56:17.454Z,102190.11
2022-11-20T05:58:30.176Z,102196.45
2022-11-20T06:00:42.929Z,102189.63
2022-11-20T06:02:56.001Z,102189.80
2022-11-20T06:05:09.620Z,102184.91
2022-11-20T06:07:23.068Z,102180.42
2022-11-20T06:09:35.997Z,102178.15
2022-11-20T06:11:49.599Z,102180.96
2022-11-20T06:14:02.587Z,102182.21
2022-11-20T06:16:17.150Z,102184.27
2022-11-20T06:18:30.452Z,102187.41
2022-11-20T06:20:42.982Z,102191.23
2022-11-20T06:22:55.819Z,102189.77
2022-11-20T06:25:08.400Z,102186.70
2022-11-20T06:27:20.953Z,102189.95
2022-11-20T06:29:34.257Z,102194.15
2022-11-20T06:31:47.187Z,102192.27
2022-11-20T06:34:00.804Z,102191.39
2022-11-20T06:36:14.507Z,102186.31
2022-11-20T06:38:27.885Z,102187.82
2022-11-20T06:40:40.275Z,102187.00
2022-11-20T06:42:52.713Z,102185.48
2022-11-20T06:45:05.808Z,102187.86
2022-11-20T06:47:18.504Z,102185.44
2022-11-20T06:49:32.760Z,102186.78
2022-11-20T06:51:45.469Z,102186.67
2022-11-20T06:53:58.109Z,102187.41
2022-11-20T06:56:12.162Z,102192.60
2022-11-20T06:58:24.999Z,102189.69
2022-11-20T07:00:37.755Z,102187.64
2022-11-20T07:02:50.400Z,102188.70
2022-11-20T07:05:03.400Z,102194.77
2022-11-20T07:07:16.288Z,102190.53
2022-11-20T07:09:28.823Z,102195.90
2022-11-20T07:11:41.398Z,102194.86
2022-11-20T07:13:54.207Z,102200.36
2022-11-20T07:16:09.946Z,102197.27
2022-11-20T07:18:22.629Z,102202.41
2022-11-20T07:20:35.415Z,102200.52
2022-11-20T07:22:48.632Z,102204.82
2022-11-20T07:25:01.897Z,102201.31
2022-11-20T07:27:14.926Z,102200.91
2022-11-20T07:29:28.025Z,102197.34
2022-11-20T07:31:40.812Z,102194.41
2022-11-20T07:33:53.321Z,102193.61
2022-11-20T07:36:07.943Z,102197.60
2022-11-20T07:38:21.095Z,102196.82
2022-11-20T07:40:33.940Z,102192.77
2022-11-20T07:42:54.069Z,102193.86
2022-11-20T07:45:06.970Z,102190.60
2022-11-20T07:47:19.443Z,102190.04
2022-11-20T07:49:32.335Z,102189.77
2022-11-20T07:51:47.896Z,102193.45
2022-11-20T07:54:03.044Z,102192.95
2022-11-20T07:56:16.219Z,102194.95
2022-11-20T07:58:29.225Z,102193.70
2022-11-20T08:00:42.261Z,102200.73
2022-11-20T08:02:55.051Z,102205.17
2022-11-20T08:05:08.128Z,102207.71
2022-11-20T08:07:21.069Z,102210.96
2022-11-20T08:09:34.677Z,102209.06
2022-11-20T08:12:04.293Z,102206.64
2022-11-20T08:14:16.704Z,102204.14
2022-11-20T08:16:30.092Z,102208.95
2022-11-20T08:18:43.258Z,102206.25
2022-11-20T08:20:56.190Z,102211.55
2022-11-20T08:23:10.695Z,102207.44
2022-11-20T08:25:23.281Z,102206.86
2022-11-20T08:27:38.778Z,102213.05
2022-11-20T08:29:52.082Z,102212.98
2022-11-20T08:32:04.471Z,102211.04
2022-11-20T08:34:23.964Z,102209.46
2022-11-20T08:36:39.757Z,102209.50
2022-11-20T08:38:56.400Z,102204.77
2022-11-20T08:41:30.526Z,102198.91
2022-11-20T08:43:43.601Z,102199.02
2022-11-20T08:45:56.098Z,102203.96
2022-11-20T08:48:10.150Z,102199.10
2022-11-20T08:50:23.997Z,102198.90
2022-11-20T08:52:39.856Z,102196.95
2022-11-20T08:54:52.885Z,102200.77
2022-11-20T08:57:05.698Z,102205.36
2022-11-20T08:59:36.711Z,102204.52
2022-11-20T09:01:51.942Z,102205.98
2022-11-20T09:04:06.681Z,102204.73
2022-11-20T09:06:19.068Z,102200.78
2022-11-20T09:08:33.323Z,102199.05
2022-11-20T09:10:46.029Z,102197.65
2022-11-20T09:12:58.897Z,102189.27
2022-11-20T09:15:13.167Z,102188.83
2022-11-20T09:17:25.747Z,102190.17
2022-11-20T09:19:38.450Z,102190.20
2022-11-20T09:21:53.576Z,102191.91
2022-11-20T09:24:09.414Z,102190.13
2022-11-20T09:26:21.828Z,102193.35
2022-11-20T09:28:34.752Z,102198.40
2022-11-20T09:30:47.557Z,102195.42
2022-11-20T09:33:00.632Z,102193.30
2022-11-20T09:35:14.843Z,102195.88
2022-11-20T09:37:28.120Z,102199.17
2022-11-20T09:39:40.943Z,102198.91
2022-11-20T09:42:12.024Z,102205.61
2022-11-20T09:44:39.972Z,102211.08
2022-11-20T09:46:57.648Z,102210.92
2022-11-20T09:49:29.139Z,102208.16
2022-11-20T09:51:55.616Z,102210.45
2022-11-20T09:54:19.206Z,102207.91
2022-11-20T09:56:33.499Z,102209.80
2022-11-20T09:58:48.845Z,102210.13
2022-11-20T10:01:08.393Z,102206.57
2022-11-20T10:03:26.483Z,102210.55
2022-11-20T10:05:45.106Z,102212.48
2022-11-20T10:08:04.619Z,102211.55
2022-11-20T10:10:25.986Z,102217.86
2022-11-20T10:13:00.576Z,102213.85
2022-11-20T10:15:30.937Z,102208.89
2022-11-20T10:18:03.348Z,102210.17
2022-11-20T10:20:28.974Z,102208.17
2022-11-20T10:23:03.767Z,102204.98
2022-11-20T10:25:22.136Z,102202.90
2022-11-20T10:28:10.776Z,102206.17
2022-11-20T10:30:27.310Z,102200.84
2022-11-20T10:32:43.633Z,102196.73
2022-11-20T10:35:01.730Z,102195.54
2022-11-20T10:37:20.334Z,102202.60
2022-11-20T10:39:43.452Z,102196.65
2022-11-20T10:41:57.691Z,102197.52
2022-11-20T10:44:16.812Z,102196.70
2022-11-20T10:46:36.865Z,102188.86
2022-11-20T10:48:51.406Z,102196.69
2022-11-20T10:51:22.362Z,102197.23
2022-11-20T10:53:52.635Z,102197.66
2022-11-20T10:56:11.712Z,102193.77
2022-11-20T10:58:34.151Z,102196.04
2022-11-20T11:00:47.229Z,102200.90
2022-11-20T11:03:04.434Z,102199.40
2022-11-20T11:05:32.071Z,102202.70
2022-11-20T11:07:46.513Z,102205.25
2022-11-20T11:10:00.832Z,102208.08
2022-11-20T11:12:16.274Z,102205.77
2022-11-20T11:14:29.007Z,102205.21
2022-11-20T11:16:53.105Z,102211.14
2022-11-20T11:19:16.607Z,102207.38
2022-11-20T11:21:33.393Z,102212.73
2022-11-20T11:23:46.911Z,102215.21
2022-11-20T11:26:07.272Z,102217.98
2022-11-20T11:28:29.891Z,102216.61
2022-11-20T11:30:51.500Z,102211.66
2022-11-20T11:33:22.437Z,102212.07
2022-11-20T11:35:35.306Z,102209.47
2022-11-20T11:37:50.021Z,102205.21
2022-11-20T11:42:36.246Z,102209.83
2022-11-20T11:45:09.933Z,102213.05
2022-11-20T11:47:28.740Z,102221.30
2022-11-20T11:49:42.388Z,102226.45
2022-11-20T11:52:06.297Z,102226.19
2022-11-20T11:54:26.137Z,102230.70
2022-11-20T11:56:40.665Z,102229.64
2022-11-20T11:58:57.249Z,102228.88
2022-11-20T12:01:17.037Z,102231.99
2022-11-20T12:03:38.527Z,102239.70
2022-11-20T12:05:55.131Z,102243.27
2022-11-20T12:08:14.434Z,102247.90
2022-11-20T12:10:38.750Z,102248.50
2022-11-20T12:12:56.809Z,102243.05
2022-11-20T12:15:14.994Z,102236.80
2022-11-20T12:17:27.814Z,102243.28
2022-11-20T12:19:41.303Z,102238.98
2022-11-20T12:22:05.019Z,102235.64
2022-11-20T12:24:44.740Z,102242.18
2022-11-20T12:27:16.236Z,102241.98
2022-11-20T12:29:39.517Z,102245.48
2022-11-20T12:32:10.550Z,102246.52
2022-11-20T12:34:37.044Z,102249.91
2022-11-20T12:37:01.067Z,102254.41
2022-11-20T12:39:45.268Z,102259.23
2022-11-20T12:42:38.209Z,102263.02
2022-11-20T12:45:14.799Z,102260.59
2022-11-20T12:47:37.568Z,102258.61
2022-11-20T12:49:59.664Z,102263.98
2022-11-20T12:52:33.578Z,102261.83
2022-11-20T12:55:12.401Z,102262.95
2022-11-20T12:57:33.095Z,102261.85
2022-11-20T13:00:04.488Z,102262.27
2022-11-20T13:02:29.872Z,102262.53
2022-11-20T13:04:57.463Z,102263.87
2022-11-20T13:07:13.052Z,102262.84
2022-11-20T13:09:27.992Z,102261.46
2022-11-20T13:11:47.339Z,102255.09
2022-11-20T13:14:24.325Z,102257.75
2022-11-20T13:16:42.838Z,102254.39
2022-11-20T13:18:56.158Z,102257.23
2022-11-20T13:21:17.215Z,102259.48
2022-11-20T13:23:33.821Z,102257.23
2022-11-20T13:25:47.127Z,102256.52
2022-11-20T13:28:00.514Z,102256.47
2022-11-20T13:30:24.070Z,102257.38
2022-11-20T13:32:36.824Z,102252.79
2022-11-20T13:34:59.063Z,102249.04
2022-11-20T13:37:24.445Z,102247.08
2022-11-20T13:39:38.310Z,102240.29
2022-11-20T13:42:01.375Z,102243.64
2022-11-20T13:44:19.577Z,102246.67
2022-11-20T13:46:44.971Z,102237.31
2022-11-20T13:48:59.447Z,102233.33
2022-11-20T13:51:22.531Z,102228.56
2022-11-20T13:53:56.585Z,102222.98
2022-11-20T13:56:16.267Z,102219.94
2022-11-20T13:58:40.280Z,102226.56
2022-11-20T14:00:58.696Z,102224.66
2022-11-20T14:03:28.385Z,102222.16
2022-11-20T14:06:00.937Z,102225.48
2022-11-20T14:08:24.666Z,102230.75
2022-11-20T14:10:37.342Z,102226.50
2022-11-20T14:12:50.075Z,102224.11
2022-11-20T14:15:03.444Z,102219.45
2022-11-20T14:17:24.688Z,102220.82
2022-11-20T14:19:39.171Z,102226.09
2022-11-20T14:21:53.191Z,102224.29
2022-11-20T14:24:18.005Z,102223.48
2022-11-20T14:26:31.238Z,102228.18
2022-11-20T14:28:44.476Z,102228.60
2022-11-20T14:30:57.757Z,102232.18
2022-11-20T14:33:11.100Z,102240.39
2022-11-20T14:35:29.172Z,102243.61
2022-11-20T14:37:45.154Z,102245.98
2022-11-20T14:40:00.917Z,102246.60
2022-11-20T14:42:22.898Z,102245.04
2022-11-20T14:44:39.129Z,102244.04
2022-11-20T14:46:52.506Z,102249.20
2022-11-20T14:49:08.306Z,102245.10
2022-11-20T14:51:31.378Z,102248.58
2022-11-20T14:53:44.211Z,102247.95
2022-11-20T14:56:03.275Z,102253.39
2022-11-20T14:58:28.725Z,102255.91
2022-11-20T15:00:41.718Z,102259.34
2022-11-20T15:02:55.976Z,102260.48
2022-11-20T15:05:10.033Z,102264.65
2022-11-20T15:07:33.554Z,102273.62
2022-11-20T15:09:46.270Z,102275.22
2022-11-20T15:12:04.223Z,102278.59
2022-11-20T15:14:19.015Z,102283.42
2022-11-20T15:16:35.163Z,102286.51
2022-11-20T15:18:48.273Z,102292.10
2022-11-20T15:21:02.849Z,102292.98
2022-11-20T15:23:20.403Z,102294.67
2022-11-20T15:25:33.252Z,102303.69
2022-11-20T15:27:46.052Z,102307.73
2022-11-20T15:29:58.868Z,102305.23
2022-11-20T15:32:13.644Z,102315.80
2022-11-20T15:34:26.642Z,102321.18
2022-11-20T15:36:39.501Z,102325.06
2022-11-20T15:38:52.628Z,102327.86
2022-11-20T15:41:05.353Z,102334.05
2022-11-20T15:43:18.322Z,102340.27
2022-11-20T15:45:32.368Z,102344.67
2022-11-20T15:47:45.008Z,102340.40
2022-11-20T15:49:57.516Z,102339.35
2022-11-20T15:52:10.015Z,102336.90
2022-11-20T15:54:24.926Z,102342.70
2022-11-20T15:56:37.874Z,102335.96
2022-11-20T15:58:50.914Z,102337.80
2022-11-20T16:01:03.694Z,102344.39
2022-11-20T16:03:18.609Z,102345.38
2022-11-20T16:05:34.851Z,102349.57
2022-11-20T16:07:47.814Z,102341.13
2022-11-20T16:10:00.520Z,102339.50
2022-11-20T16:12:37.103Z,102337.81
2022-11-20T16:15:15.534Z,102342.11
2022-11-20T16:17:44.759Z,102344.55
2022-11-20T16:19:57.778Z,102336.45
2022-11-20T16:22:10.704Z,102333.23
2022-11-20T16:24:24.445Z,102338.48
2022-11-20T16:26:37.898Z,102345.67
2022-11-20T16:28:50.772Z,102348.80
2022-11-20T16:31:11.578Z,102356.17
2022-11-20T16:33:24.684Z,102360.96
2022-11-20T16:35:37.897Z,102371.76
2022-11-20T16:37:50.694Z,102371.08
2022-11-20T16:40:03.323Z,102372.70
2022-11-20T16:42:16.004Z,102366.83
2022-11-20T16:44:28.835Z,102368.13
2022-11-20T16:46:41.759Z,102369.35
2022-11-20T16:48:59.651Z,102375.78
2022-11-20T16:51:15.699Z,102374.65
2022-11-20T16:53:28.950Z,102374.61
2022-11-20T16:55:41.714Z,102372.43
2022-11-20T16:57:54.185Z,102373.08
2022-11-20T17:00:07.344Z,102367.06
2022-11-20T17:02:20.142Z,102365.79
2022-11-20T17:04:33.532Z,102365.82
2022-11-20T17:06:48.893Z,102369.26
2022-11-20T17:09:02.163Z,102362.65
2022-11-20T17:11:16.743Z,102363.27
2022-11-20T17:13:29.449Z,102360.93
2022-11-20T17:15:42.365Z,102362.77
2022-11-20T17:17:55.319Z,102363.70
2022-11-20T17:20:08.479Z,102371.52
2022-11-20T17:22:21.246Z,102366.58
2022-11-20T17:24:34.448Z,102366.50
2022-11-20T17:26:48.251Z,102371.70
2022-11-20T17:29:02.799Z,102363.13
2022-11-20T17:31:17.527Z,102368.39
2022-11-20T17:33:30.745Z,102360.42
2022-11-20T17:35:43.895Z,102364.23
2022-11-20T17:37:57.067Z,102362.29
2022-11-20T17:40:11.266Z,102363.61
2022-11-20T17:42:30.656Z,102362.13
2022-11-20T17:44:43.783Z,102360.87
2022-11-20T17:46:56.835Z,102352.96
2022-11-20T17:49:09.889Z,102349.80
2022-11-20T17:51:24.583Z,102349.00
2022-11-20T17:53:39.879Z,102351.55
2022-11-20T17:56:17.844Z,102352.59
2022-11-20T17:58:33.218Z,102352.04
2022-11-20T18:00:45.962Z,102356.14
2022-11-20T18:02:59.087Z,102350.70
2022-11-20T18:05:13.215Z,102353.05
2022-11-20T18:07:26.197Z,102352.27
2022-11-20T18:09:39.239Z,102349.03
2022-11-20T18:11:52.386Z,102347.11
2022-11-20T18:14:23.894Z,102340.18
2022-11-20T18:16:38.684Z,102336.48
2022-11-20T18:18:51.124Z,102332.83
2022-11-20T18:21:03.894Z,102340.23
2022-11-20T18:23:16.766Z,102339.65
2022-11-20T18:25:30.040Z,102339.36
2022-11-20T18:27:42.401Z,102335.83
2022-11-20T18:29:55.187Z,102337.51
2022-11-20T18:32:07.940Z,102338.65
2022-11-20T18:34:20.556Z,102339.48
2022-11-20T18:36:35.173Z,102337.02
2022-11-20T18:38:48.559Z,102340.77
2022-11-20T18:41:03.888Z,102333.63
2022-11-20T18:43:36.494Z,102330.36
2022-11-20T18:45:49.210Z,102328.25
2022-11-20T18:48:02.089Z,102328.90
2022-11-20T18:50:15.519Z,102322.93
2022-11-20T18:52:30.148Z,102332.58
2022-11-20T18:54:43.044Z,102329.80
2022-11-20T18:56:56.084Z,102328.34
2022-11-20T18:59:10.476Z,102323.02
2022-11-20T19:01:23.379Z,102325.17
2022-11-20T19:03:37.887Z,102313.98
2022-11-20T19:05:50.597Z,102315.36
2022-11-20T19:08:03.449Z,102317.86
2022-11-20T19:10:16.520Z,102319.49
2022-11-20T19:12:29.385Z,102323.64
2022-11-20T19:14:42.484Z,102323.00
2022-11-20T19:16:55.469Z,102318.13
2022-11-20T19:19:09.423Z,102313.41
2022-11-20T19:21:23.969Z,102311.85
2022-11-20T19:23:36.663Z,102313.08
2022-11-20T19:25:49.504Z,102316.33
2022-11-20T19:28:02.872Z,102320.76
2022-11-20T19:30:18.384Z,102314.67
2022-11-20T19:32:31.524Z,102321.25
2022-11-20T19:34:44.825Z,102318.23
2022-11-20T19:36:57.872Z,102320.17
2022-11-20T19:39:11.759Z,102319.98
2022-11-20T19:41:29.890Z,102318.23
2022-11-20T19:43:42.634Z,102319.71
2022-11-20T19:45:55.547Z,102315.17
2022-11-20T19:48:09.001Z,102306.09
2022-11-20T19:50:22.001Z,102311.38
2022-11-20T19:52:34.741Z,102309.77
2022-11-20T19:54:48.412Z,102307.41
2022-11-20T19:57:02.312Z,102298.41
2022-11-20T19:59:15.194Z,102299.44
2022-11-20T20:01:29.806Z,102297.34
2022-11-20T20:03:43.720Z,102290.06
2022-11-20T20:05:57.099Z,102294.71
2022-11-20T20:08:12.148Z,102294.39
2022-11-20T20:10:28.209Z,102284.48
2022-11-20T20:12:40.891Z,102281.20
2022-11-20T20:14:53.820Z,102277.05
2022-11-20T20:17:06.838Z,102268.25
2022-11-20T20:19:21.964Z,102261.98
2022-11-20T20:21:37.363Z,102259.89
2022-11-20T20:23:53.563Z,102249.70
2022-11-20T20:26:08.034Z,102248.00
2022-11-20T20:28:21.479Z,102248.49
2022-11-20T20:30:34.769Z,102246.83
2022-11-20T20:32:50.715Z,102247.54
2022-11-20T20:35:06.170Z,102251.08
2022-11-20T20:37:18.951Z,102249.91
2022-11-20T20:39:32.436Z,102243.74
2022-11-20T20:41:45.008Z,102240.84
2022-11-20T20:44:14.746Z,102236.19
2022-11-20T20:46:27.699Z,102237.19
2022-11-20T20:48:41.275Z,102240.14
2022-11-20T20:51:02.146Z,102247.45
2022-11-20T20:53:14.729Z,102245.13
2022-11-20T20:55:27.469Z,102250.48
2022-11-20T20:57:40.896Z,102248.73
2022-11-20T20:59:54.451Z,102245.33
2022-11-20T21:02:07.546Z,102239.48
2022-11-20T21:04:20.390Z,102241.42
2022-11-20T21:06:33.295Z,102240.89
2022-11-20T21:08:46.138Z,102225.90
2022-11-20T21:11:03.506Z,102235.33
2022-11-20T21:13:16.212Z,102219.41
2022-11-20T21:15:29.014Z,102231.74
2022-11-20T21:17:45.243Z,102225.17
2022-11-20T21:19:58.088Z,102224.44
2022-11-20T21:22:11.054Z,102218.63
2022-11-20T21:24:24.013Z,102224.14
2022-11-20T21:26:37.479Z,102224.36
2022-11-20T21:28:50.890Z,102220.27
2022-11-20T21:31:11.852Z,102220.11
2022-11-20T21:33:24.759Z,102213.80
2022-11-20T21:35:40.703Z,102215.85
2022-11-20T21:37:53.450Z,102210.27
2022-11-20T21:40:06.246Z,102208.31
2022-11-20T21:42:19.870Z,102202.89
2022-11-20T21:44:34.602Z,102201.39
2022-11-20T21:46:49.089Z,102204.20
2022-11-20T21:49:02.425Z,102194.48
2022-11-20T21:51:18.439Z,102193.15
2022-11-20T21:53:31.508Z,102187.55
2022-11-20T21:55:44.365Z,102187.58
2022-11-20T21:57:57.138Z,102184.94
2022-11-20T22:00:11.988Z,102188.78
2022-11-20T22:02:24.547Z,102188.45
2022-11-20T22:04:37.169Z,102188.65
2022-11-20T22:06:49.909Z,102183.56
2022-11-20T22:09:03.234Z,102180.86
2022-11-20T22:11:18.439Z,102182.44
2022-11-20T22:13:48.509Z,102179.30
2022-11-20T22:16:06.614Z,102181.42
2022-11-20T22:18:19.410Z,102180.29
2022-11-20T22:20:32.653Z,102179.30
2022-11-20T22:22:45.412Z,102179.77
2022-11-20T22:24:58.732Z,102180.27
2022-11-20T22:27:13.441Z,102175.77
2022-11-20T22:29:26.957Z,102172.32
2022-11-20T22:31:40.181Z,102166.65
2022-11-20T22:33:53.174Z,102167.11
2022-11-20T22:36:10.871Z,102162.68
2022-11-20T22:38:26.588Z,102158.40
2022-11-20T22:40:44.877Z,102156.19
2022-11-20T22:42:57.650Z,102159.48
2022-11-20T22:45:12.779Z,102161.89
2022-11-20T22:47:25.536Z,102169.91
2022-11-20T22:49:38.224Z,102166.66
2022-11-20T22:51:50.924Z,102166.02
2022-11-20T22:54:04.883Z,102165.30
2022-11-20T22:56:18.499Z,102162.27
2022-11-20T22:58:33.750Z,102162.02
2022-11-20T23:00:46.479Z,102169.84
2022-11-20T23:02:59.374Z,102166.44
2022-11-20T23:05:12.798Z,102172.64
2022-11-20T23:07:25.866Z,102169.23
2022-11-20T23:09:38.850Z,102165.52
2022-11-20T23:11:52.878Z,102168.48
2022-11-20T23:14:07.768Z,102161.38
2022-11-20T23:16:22.324Z,102163.89
2022-11-20T23:18:36.030Z,102155.55
2022-11-20T23:20:48.541Z,102158.02
2022-11-20T23:23:01.452Z,102155.29
2022-11-20T23:25:15.301Z,102152.41
2022-11-20T23:27:28.474Z,102154.83
2022-11-20T23:29:41.623Z,102149.36
2022-11-20T23:31:54.959Z,102146.73
2022-11-20T23:34:08.216Z,102140.20
2022-11-20T23:36:21.054Z,102138.61
2022-11-20T23:38:34.356Z,102133.40
2022-11-20T23:40:49.470Z,102132.04
2022-11-20T23:43:20.334Z,102135.83
2022-11-20T23:45:33.571Z,102134.69
2022-11-20T23:47:46.292Z,102136.02
2022-11-20T23:49:59.032Z,102136.41
2022-11-20T23:52:12.619Z,102135.30
2022-11-20T23:54:25.420Z,102133.54
2022-11-20T23:56:39.089Z,102130.33
2022-11-20T23:58:51.659Z,102124.58
